createdAt,value
2019-06-08T00:01:37.719Z,21.37
2019-06-08T00:04:18.606Z,21.28
2019-06-08T00:06:49.896Z,21.37
2019-06-08T00:09:22.558Z,21.38
2019-06-08T00:11:54.145Z,21.32
2019-06-08T00:14:29.127Z,21.25
2019-06-08T00:17:00.303Z,21.20
2019-06-08T00:19:33.421Z,21.22
2019-06-08T00:22:04.822Z,21.17
2019-06-08T00:24:36.488Z,21.18
2019-06-08T00:27:08.087Z,21.14
2019-06-08T00:29:39.376Z,21.22
2019-06-08T00:32:10.637Z,21.13
2019-06-08T00:34:42.037Z,21.04
2019-06-08T00:37:14.546Z,21.00
2019-06-08T00:39:46.665Z,20.85
2019-06-08T00:42:19.170Z,20.63
2019-06-08T00:44:50.678Z,20.45
2019-06-08T00:47:24.707Z,20.26
2019-06-08T00:49:56.198Z,19.96
2019-06-08T00:52:27.391Z,20.06
2019-06-08T00:54:58.694Z,20.03
2019-06-08T00:57:30.249Z,19.91
2019-06-08T01:00:09.717Z,19.85
2019-06-08T01:02:35.996Z,19.93
2019-06-08T01:05:08.191Z,19.90
2019-06-08T01:07:39.585Z,19.95
2019-06-08T01:10:11.903Z,19.86
2019-06-08T01:12:43.169Z,19.86
2019-06-08T01:15:15.343Z,19.76
2019-06-08T01:18:01.553Z,19.70
2019-06-08T01:20:21.552Z,19.59
2019-06-08T01:22:53.676Z,19.45
2019-06-08T01:25:25.801Z,19.41
2019-06-08T01:27:57.108Z,19.32
2019-06-08T01:30:30.420Z,19.23
2019-06-08T01:33:01.800Z,19.14
2019-06-08T01:35:33.130Z,19.14
2019-06-08T01:38:04.465Z,19.04
2019-06-08T01:40:35.704Z,19.03
2019-06-08T01:43:07.275Z,18.98
2019-06-08T01:45:38.575Z,18.95
2019-06-08T01:48:19.936Z,18.99
2019-06-08T01:50:42.834Z,18.93
2019-06-08T01:53:14.050Z,18.92
2019-06-08T01:55:45.285Z,18.86
2019-06-08T01:58:16.525Z,18.92
2019-06-08T02:00:48.083Z,19.16
2019-06-08T02:03:19.409Z,19.29
2019-06-08T02:05:50.719Z,19.50
2019-06-08T02:08:21.931Z,19.47
2019-06-08T02:10:53.206Z,19.37
2019-06-08T02:13:24.992Z,19.37
2019-06-08T02:15:57.219Z,19.37
2019-06-08T02:18:41.559Z,19.34
2019-06-08T02:21:03.250Z,19.30
2019-06-08T02:23:35.155Z,19.16
2019-06-08T02:26:07.385Z,19.25
2019-06-08T02:28:38.578Z,19.34
2019-06-08T02:31:10.655Z,19.45
2019-06-08T02:33:41.918Z,19.35
2019-06-08T02:36:13.167Z,19.26
2019-06-08T02:38:44.445Z,19.09
2019-06-08T02:41:15.900Z,18.92
2019-06-08T02:43:47.341Z,18.79
2019-06-08T02:46:18.563Z,18.83
2019-06-08T02:49:03.512Z,18.78
2019-06-08T02:51:23.660Z,18.58
2019-06-08T02:53:55.059Z,18.75
2019-06-08T02:56:29.839Z,18.53
2019-06-08T02:59:04.185Z,18.63
2019-06-08T03:01:38.256Z,18.45
2019-06-08T03:04:09.182Z,18.43
2019-06-08T03:06:43.999Z,18.57
2019-06-08T03:09:16.726Z,18.76
2019-06-08T03:11:50.652Z,19.01
2019-06-08T03:14:24.851Z,19.20
2019-06-08T03:16:56.659Z,19.24
2019-06-08T03:19:27.881Z,19.18
2019-06-08T03:21:59.401Z,19.12
2019-06-08T03:24:32.489Z,19.03
2019-06-08T03:27:03.726Z,19.24
2019-06-08T03:29:37.074Z,19.39
2019-06-08T03:32:07.928Z,19.23
2019-06-08T03:34:46.820Z,19.12
2019-06-08T03:37:12.158Z,19.01
2019-06-08T03:39:45.166Z,18.97
2019-06-08T03:42:17.025Z,18.85
2019-06-08T03:44:48.330Z,18.77
2019-06-08T03:47:19.643Z,18.82
2019-06-08T03:49:56.668Z,18.78
2019-06-08T03:52:23.881Z,18.69
2019-06-08T03:54:55.073Z,18.57
2019-06-08T03:57:26.384Z,18.50
2019-06-08T03:59:57.652Z,18.63
2019-06-08T04:02:28.910Z,18.78
2019-06-08T04:05:00.162Z,18.91
2019-06-08T04:07:31.575Z,19.00
2019-06-08T04:10:02.994Z,19.08
2019-06-08T04:12:34.819Z,19.12
2019-06-08T04:15:07.698Z,19.14
2019-06-08T04:17:39.777Z,19.04
2019-06-08T04:20:12.425Z,19.03
2019-06-08T04:22:47.225Z,19.04
2019-06-08T04:25:20.580Z,19.04
2019-06-08T04:27:52.004Z,18.96
2019-06-08T04:30:27.223Z,18.97
2019-06-08T04:32:58.925Z,19.14
2019-06-08T04:35:30.165Z,19.27
2019-06-08T04:38:01.776Z,19.47
2019-06-08T04:40:33.051Z,19.75
2019-06-08T04:43:04.495Z,19.99
2019-06-08T04:45:35.819Z,20.17
2019-06-08T04:48:09.706Z,20.35
2019-06-08T04:50:40.973Z,20.62
2019-06-08T04:53:12.777Z,20.59
2019-06-08T04:55:46.509Z,20.76
2019-06-08T04:58:18.345Z,20.92
2019-06-08T05:00:50.876Z,20.99
2019-06-08T05:03:22.475Z,21.18
2019-06-08T05:05:53.791Z,21.47
2019-06-08T05:08:25.252Z,21.62
2019-06-08T05:10:56.483Z,21.87
2019-06-08T05:13:27.824Z,22.05
2019-06-08T05:15:59.014Z,22.08
2019-06-08T05:18:30.867Z,21.94
2019-06-08T05:21:02.705Z,21.50
2019-06-08T05:23:33.987Z,21.42
2019-06-08T05:26:05.902Z,21.52
2019-06-08T05:28:37.237Z,22.24
2019-06-08T05:31:09.006Z,22.18
2019-06-08T05:33:43.339Z,22.42
2019-06-08T05:36:15.621Z,23.10
2019-06-08T05:38:47.661Z,23.84
2019-06-08T05:41:18.912Z,23.79
2019-06-08T05:43:50.338Z,23.46
2019-06-08T05:46:21.698Z,24.02
2019-06-08T05:48:53.672Z,24.66
2019-06-08T05:51:25.240Z,24.45
2019-06-08T05:53:57.200Z,24.56
2019-06-08T05:56:30.054Z,25.61
2019-06-08T05:59:01.946Z,26.35
2019-06-08T06:01:34.651Z,26.92
2019-06-08T06:04:07.827Z,27.75
2019-06-08T06:06:40.435Z,26.44
2019-06-08T06:09:12.565Z,26.09
2019-06-08T06:11:44.776Z,26.34
2019-06-08T06:14:16.967Z,26.07
2019-06-08T06:20:22.441Z,27.88
2019-06-08T06:22:58.512Z,28.36
2019-06-08T06:25:29.579Z,28.38
2019-06-08T06:28:06.100Z,28.64
2019-06-08T06:30:36.977Z,28.71
2019-06-08T06:33:09.702Z,28.22
2019-06-08T06:35:50.068Z,27.24
2019-06-08T06:38:21.024Z,26.79
2019-06-08T06:40:54.487Z,27.48
2019-06-08T06:46:30.763Z,25.90
2019-06-08T06:49:02.801Z,26.03
2019-06-08T06:55:20.106Z,26.73
2019-06-08T06:57:53.837Z,27.42
2019-06-08T07:03:59.320Z,27.43
2019-06-08T07:06:31.357Z,28.89
2019-06-08T07:09:10.260Z,29.76
2019-06-08T07:11:42.276Z,28.83
2019-06-08T07:14:17.246Z,29.48
2019-06-08T07:16:49.879Z,28.79
2019-06-08T07:22:50.213Z,29.01
2019-06-08T07:28:10.167Z,29.75
2019-06-08T07:30:47.712Z,30.98
2019-06-08T07:33:21.363Z,30.46
2019-06-08T07:36:01.048Z,31.29
2019-06-08T07:38:35.060Z,30.67
2019-06-08T07:44:18.980Z,30.19
2019-06-08T07:46:53.749Z,29.75
2019-06-08T07:49:25.799Z,29.96
2019-06-08T07:52:08.309Z,30.59
2019-06-08T07:54:31.350Z,29.47
2019-06-08T07:57:03.132Z,29.51
2019-06-08T07:59:34.962Z,29.15
2019-06-08T08:02:07.108Z,28.89
2019-06-08T08:04:39.167Z,29.01
2019-06-08T08:07:11.206Z,28.60
2019-06-08T08:09:43.179Z,28.25
2019-06-08T08:12:15.124Z,29.20
2019-06-08T08:14:47.101Z,29.28
2019-06-08T08:17:18.925Z,29.85
2019-06-08T08:19:55.071Z,29.56
2019-06-08T08:22:29.466Z,28.89
2019-06-08T08:25:04.595Z,29.04
2019-06-08T08:27:34.069Z,29.92
2019-06-08T08:30:09.332Z,29.19
2019-06-08T08:32:41.167Z,28.28
2019-06-08T08:35:14.086Z,28.54
2019-06-08T08:37:47.411Z,29.06
2019-06-08T08:40:19.599Z,27.92
2019-06-08T08:42:52.366Z,28.09
2019-06-08T08:45:27.484Z,28.75
2019-06-08T08:48:14.870Z,29.13
2019-06-08T08:50:32.599Z,28.90
2019-06-08T08:53:04.646Z,28.09
2019-06-08T08:55:37.968Z,28.03
2019-06-08T08:58:09.987Z,28.03
2019-06-08T09:00:41.890Z,28.39
2019-06-08T09:03:27.868Z,28.25
2019-06-08T09:05:48.270Z,27.96
2019-06-08T09:08:23.167Z,28.43
2019-06-08T09:10:55.358Z,28.44
2019-06-08T09:13:28.239Z,28.45
2019-06-08T09:16:03.934Z,28.32
2019-06-08T09:18:37.438Z,28.20
2019-06-08T09:21:11.088Z,27.78
2019-06-08T09:23:42.943Z,27.94
2019-06-08T09:26:17.602Z,28.43
2019-06-08T09:28:49.438Z,27.50
2019-06-08T09:31:21.356Z,28.15
2019-06-08T09:34:02.576Z,27.15
2019-06-08T09:36:28.818Z,27.16
2019-06-08T09:39:04.456Z,26.79
2019-06-08T09:41:38.067Z,26.20
2019-06-08T09:44:12.129Z,26.38
2019-06-08T09:46:44.283Z,26.94
2019-06-08T09:49:18.560Z,26.62
2019-06-08T09:51:50.217Z,26.51
2019-06-08T09:54:22.035Z,26.99
2019-06-08T09:56:54.053Z,27.85
2019-06-08T09:59:28.426Z,28.70
2019-06-08T10:02:05.622Z,27.30
2019-06-08T10:04:33.379Z,26.46
2019-06-08T10:07:09.694Z,25.96
2019-06-08T10:09:43.246Z,26.12
2019-06-08T10:12:14.124Z,26.14
2019-06-08T10:14:48.776Z,26.25
2019-06-08T10:17:21.076Z,26.60
2019-06-08T10:19:54.516Z,27.40
2019-06-08T10:22:28.295Z,27.31
2019-06-08T10:25:03.727Z,27.78
2019-06-08T10:27:33.620Z,28.65
2019-06-08T10:30:10.574Z,28.88
2019-06-08T10:32:42.439Z,29.51
2019-06-08T10:35:14.773Z,28.79
2019-06-08T10:37:47.846Z,27.57
2019-06-08T10:40:22.429Z,27.29
2019-06-08T10:42:54.304Z,27.43
2019-06-08T10:45:28.439Z,27.16
2019-06-08T10:48:01.499Z,27.43
2019-06-08T10:50:33.415Z,27.47
2019-06-08T10:53:10.885Z,28.23
2019-06-08T10:55:42.298Z,28.73
2019-06-08T10:58:14.252Z,29.50
2019-06-08T11:00:48.056Z,29.14
2019-06-08T11:03:19.690Z,29.10
2019-06-08T11:05:51.773Z,30.35
2019-06-08T11:08:24.418Z,30.26
2019-06-08T11:10:57.914Z,29.76
2019-06-08T11:13:30.731Z,30.59
2019-06-08T11:16:04.421Z,30.88
2019-06-08T11:18:36.827Z,32.12
2019-06-08T11:21:12.578Z,32.25
2019-06-08T11:23:42.773Z,32.20
2019-06-08T11:26:20.879Z,32.10
2019-06-08T11:28:51.166Z,31.72
2019-06-08T11:31:23.536Z,31.69
2019-06-08T11:33:58.483Z,31.97
2019-06-08T11:36:29.638Z,31.88
2019-06-08T11:39:02.544Z,31.98
2019-06-08T11:41:36.103Z,32.10
2019-06-08T11:44:13.634Z,30.57
2019-06-08T11:46:44.442Z,29.59
2019-06-08T11:49:18.471Z,30.25
2019-06-08T11:51:49.019Z,30.23
2019-06-08T11:54:32.989Z,30.00
2019-06-08T11:57:00.684Z,30.50
2019-06-08T11:59:34.395Z,30.60
2019-06-08T12:02:09.034Z,30.74
2019-06-08T12:04:39.990Z,31.40
2019-06-08T12:07:13.705Z,31.24
2019-06-08T12:09:49.919Z,31.10
2019-06-08T12:12:21.397Z,31.71
2019-06-08T12:14:54.455Z,30.84
2019-06-08T12:17:28.247Z,31.17
2019-06-08T12:20:00.445Z,31.06
2019-06-08T12:22:47.839Z,30.35
2019-06-08T12:25:20.388Z,30.70
2019-06-08T12:27:52.866Z,30.72
2019-06-08T12:30:26.247Z,30.61
2019-06-08T12:32:59.730Z,30.81
2019-06-08T12:35:31.664Z,31.23
2019-06-08T12:38:03.776Z,31.51
2019-06-08T12:40:38.321Z,31.58
2019-06-08T12:43:11.725Z,31.25
2019-06-08T12:45:43.583Z,30.86
2019-06-08T12:48:19.561Z,30.71
2019-06-08T12:50:49.222Z,30.78
2019-06-08T12:53:22.994Z,31.39
2019-06-08T12:55:54.759Z,31.85
2019-06-08T12:58:28.212Z,31.82
2019-06-08T13:01:01.584Z,30.82
2019-06-08T13:03:33.608Z,31.33
2019-06-08T13:06:08.841Z,31.28
2019-06-08T13:08:39.599Z,31.04
2019-06-08T13:11:16.493Z,31.01
2019-06-08T13:13:49.041Z,30.40
2019-06-08T13:16:24.213Z,30.29
2019-06-08T13:18:54.806Z,30.48
2019-06-08T13:21:34.681Z,29.72
2019-06-08T13:24:00.545Z,30.35
2019-06-08T13:26:32.708Z,30.06
2019-06-08T13:29:04.816Z,30.14
2019-06-08T13:31:38.316Z,30.42
2019-06-08T13:34:13.014Z,30.72
2019-06-08T13:36:44.363Z,29.94
2019-06-08T13:39:19.570Z,29.77
2019-06-08T13:41:52.490Z,30.02
2019-06-08T13:44:24.442Z,30.42
2019-06-08T13:46:57.782Z,30.62
2019-06-08T13:49:30.933Z,30.51
2019-06-08T13:52:03.062Z,30.53
2019-06-08T13:54:35.051Z,30.95
2019-06-08T13:57:08.500Z,31.20
2019-06-08T13:59:40.524Z,31.74
2019-06-08T14:02:13.540Z,31.93
2019-06-08T14:04:46.776Z,31.76
2019-06-08T14:07:24.512Z,31.66
2019-06-08T14:09:52.864Z,31.57
2019-06-08T14:12:25.791Z,30.75
2019-06-08T14:14:58.568Z,31.12
2019-06-08T14:17:32.522Z,30.48
2019-06-08T14:20:08.058Z,30.97
2019-06-08T14:22:40.261Z,30.77
2019-06-08T14:25:12.368Z,30.57
2019-06-08T14:27:44.199Z,30.48
2019-06-08T14:30:18.221Z,29.99
2019-06-08T14:32:49.617Z,29.74
2019-06-08T14:35:23.788Z,30.01
2019-06-08T14:37:57.799Z,29.76
2019-06-08T14:40:32.671Z,29.88
2019-06-08T14:43:02.485Z,30.04
2019-06-08T14:45:34.373Z,30.16
2019-06-08T14:48:07.406Z,30.42
2019-06-08T14:50:41.048Z,30.48
2019-06-08T14:53:13.020Z,30.48
2019-06-08T14:55:44.922Z,29.85
2019-06-08T14:58:19.179Z,29.76
2019-06-08T15:00:50.609Z,29.90
2019-06-08T15:03:23.119Z,29.84
2019-06-08T15:05:54.936Z,29.89
2019-06-08T15:08:28.618Z,29.91
2019-06-08T15:11:00.317Z,29.82
2019-06-08T15:13:32.105Z,29.80
2019-06-08T15:16:04.008Z,29.54
2019-06-08T15:18:38.533Z,29.28
2019-06-08T15:21:11.974Z,29.35
2019-06-08T15:23:44.731Z,29.31
2019-06-08T15:26:23.999Z,29.48
2019-06-08T15:28:50.567Z,29.52
2019-06-08T15:31:23.061Z,29.58
2019-06-08T15:33:55.039Z,29.51
2019-06-08T15:36:29.517Z,29.57
2019-06-08T15:39:00.401Z,29.39
2019-06-08T15:41:33.852Z,29.58
2019-06-08T15:44:05.781Z,29.57
2019-06-08T15:46:37.935Z,29.64
2019-06-08T15:49:11.399Z,29.64
2019-06-08T15:51:43.339Z,29.35
2019-06-08T15:54:15.167Z,29.32
2019-06-08T15:56:51.356Z,29.49
2019-06-08T15:59:20.608Z,29.43
2019-06-08T16:01:53.744Z,29.58
2019-06-08T16:04:25.792Z,29.65
2019-06-08T16:06:57.687Z,29.49
2019-06-08T16:09:29.976Z,29.37
2019-06-08T16:12:01.866Z,29.39
2019-06-08T16:14:34.925Z,29.33
2019-06-08T16:17:07.038Z,29.43
2019-06-08T16:19:39.094Z,29.31
2019-06-08T16:22:11.043Z,29.30
2019-06-08T16:24:42.891Z,29.24
2019-06-08T16:27:14.882Z,29.23
2019-06-08T16:29:46.762Z,29.18
2019-06-08T16:32:18.590Z,29.09
2019-06-08T16:34:50.546Z,28.99
2019-06-08T16:37:22.452Z,28.94
2019-06-08T16:39:54.564Z,28.89
2019-06-08T16:42:27.791Z,28.89
2019-06-08T16:44:59.667Z,28.84
2019-06-08T16:47:31.492Z,28.72
2019-06-08T16:50:03.835Z,28.63
2019-06-08T16:52:36.683Z,28.62
2019-06-08T16:55:08.915Z,28.54
2019-06-08T16:57:41.277Z,28.51
2019-06-08T17:00:31.399Z,28.52
2019-06-08T17:02:47.555Z,28.51
2019-06-08T17:05:21.019Z,28.49
2019-06-08T17:07:55.939Z,28.45
2019-06-08T17:10:27.904Z,28.44
2019-06-08T17:13:00.107Z,28.36
2019-06-08T17:15:32.063Z,28.39
2019-06-08T17:18:04.269Z,28.32
2019-06-08T17:20:36.294Z,28.16
2019-06-08T17:23:08.426Z,28.04
2019-06-08T17:25:41.543Z,27.96
2019-06-08T17:28:13.401Z,27.82
2019-06-08T17:30:46.653Z,27.69
2019-06-08T17:33:18.937Z,27.63
2019-06-08T17:35:50.826Z,27.51
2019-06-08T17:38:22.847Z,27.43
2019-06-08T17:40:54.724Z,27.32
2019-06-08T17:43:26.617Z,27.30
2019-06-08T17:45:58.916Z,27.29
2019-06-08T17:48:30.790Z,27.20
2019-06-08T17:51:02.826Z,27.08
2019-06-08T17:53:35.163Z,27.00
2019-06-08T17:56:07.726Z,26.91
2019-06-08T17:58:39.691Z,26.75
2019-06-08T18:01:11.835Z,26.62
2019-06-08T18:03:44.730Z,26.49
2019-06-08T18:06:17.994Z,26.34
2019-06-08T18:08:49.833Z,26.19
2019-06-08T18:11:21.912Z,26.02
2019-06-08T18:13:54.770Z,25.96
2019-06-08T18:16:27.853Z,25.77
2019-06-08T18:18:59.997Z,25.62
2019-06-08T18:28:46.196Z,25.28
2019-06-08T18:34:53.681Z,25.20
2019-06-08T18:37:25.181Z,25.16
2019-06-08T18:39:57.858Z,25.05
2019-06-08T18:42:29.562Z,25.00
2019-06-08T18:45:02.513Z,24.92
2019-06-08T18:47:40.327Z,24.84
2019-06-08T18:50:14.000Z,24.79
2019-06-08T18:52:47.283Z,24.79
2019-06-08T18:55:23.420Z,24.71
2019-06-08T18:57:52.069Z,24.61
2019-06-08T19:00:30.648Z,24.67
2019-06-08T19:05:52.151Z,24.53
2019-06-08T19:08:24.509Z,24.42
2019-06-08T19:10:58.171Z,24.28
2019-06-08T19:13:30.476Z,24.22
2019-06-08T19:16:02.774Z,24.06
2019-06-08T19:18:34.207Z,23.86
2019-06-08T19:21:07.769Z,23.79
2019-06-08T19:23:41.847Z,23.77
2019-06-08T19:26:12.003Z,23.74
2019-06-08T19:28:47.811Z,23.64
2019-06-08T19:31:23.598Z,23.58
2019-06-08T19:33:53.653Z,23.69
2019-06-08T19:36:28.568Z,24.01
2019-06-08T19:39:07.010Z,24.10
2019-06-08T19:41:39.419Z,24.21
2019-06-08T19:44:13.398Z,24.28
2019-06-08T19:46:47.538Z,24.35
2019-06-08T19:49:17.797Z,24.42
2019-06-08T19:51:53.461Z,24.30
2019-06-08T19:54:23.667Z,24.07
2019-06-08T19:56:57.249Z,23.84
2019-06-08T19:59:28.599Z,23.81
2019-06-08T20:02:00.064Z,23.59
2019-06-08T20:04:31.651Z,23.63
2019-06-08T20:07:03.578Z,23.59
2019-06-08T20:09:37.623Z,23.59
2019-06-08T20:12:08.992Z,23.54
2019-06-08T20:14:41.314Z,23.32
2019-06-08T20:17:13.574Z,23.55
2019-06-08T20:19:48.044Z,23.63
2019-06-08T20:22:19.276Z,23.64
2019-06-08T20:24:55.325Z,23.66
2019-06-08T20:27:24.854Z,23.64
2019-06-08T20:29:58.208Z,23.55
2019-06-08T20:32:31.295Z,23.60
2019-06-08T20:35:03.283Z,23.65
2019-06-08T20:37:37.672Z,23.62
2019-06-08T20:40:14.182Z,23.47
2019-06-08T20:42:49.074Z,23.38
2019-06-08T20:45:19.684Z,23.25
2019-06-08T20:47:52.687Z,23.24
2019-06-08T20:50:27.129Z,23.24
2019-06-08T20:52:58.840Z,23.29
2019-06-08T20:55:30.159Z,23.37
2019-06-08T20:58:02.096Z,23.42
2019-06-08T21:00:33.416Z,23.45
2019-06-08T21:03:05.220Z,23.60
2019-06-08T21:05:37.075Z,23.33
2019-06-08T21:08:11.516Z,23.11
2019-06-08T21:10:46.040Z,23.05
2019-06-08T21:13:18.234Z,22.56
2019-06-08T21:15:53.822Z,22.02
2019-06-08T21:18:22.528Z,21.73
2019-06-08T21:20:55.856Z,21.64
2019-06-08T21:23:31.895Z,21.51
2019-06-08T21:26:03.337Z,21.65
2019-06-08T21:28:35.208Z,21.58
2019-06-08T21:31:08.492Z,21.50
2019-06-08T21:33:39.833Z,21.36
2019-06-08T21:36:11.773Z,21.41
2019-06-08T21:38:43.563Z,21.53
2019-06-08T21:41:17.194Z,21.58
2019-06-08T21:43:53.075Z,21.60
2019-06-08T21:46:27.531Z,21.70
2019-06-08T21:49:08.839Z,22.22
2019-06-08T21:51:51.491Z,22.45
2019-06-08T21:54:30.199Z,22.69
2019-06-08T21:57:06.682Z,22.44
2019-06-08T21:59:49.925Z,22.25
2019-06-08T22:02:27.105Z,22.09
2019-06-08T22:05:04.653Z,22.05
2019-06-08T22:07:42.514Z,21.94
2019-06-08T22:10:19.783Z,21.60
2019-06-08T22:12:53.539Z,21.30
2019-06-08T22:15:27.118Z,21.10
2019-06-08T22:18:00.156Z,20.92
2019-06-08T22:20:38.347Z,20.73
2019-06-08T22:23:10.271Z,20.65
2019-06-08T22:25:42.022Z,20.63
2019-06-08T22:28:17.585Z,20.63
2019-06-08T22:30:48.527Z,20.67
2019-06-08T22:33:22.630Z,20.66
2019-06-08T22:35:54.197Z,20.79
2019-06-08T22:38:25.638Z,20.82
2019-06-08T22:40:57.648Z,20.75
2019-06-08T22:43:31.903Z,21.08
2019-06-08T22:46:08.062Z,21.03
2019-06-08T22:48:38.951Z,20.97
2019-06-08T22:51:10.151Z,21.05
2019-06-08T22:53:41.419Z,21.07
2019-06-08T22:56:18.316Z,20.87
2019-06-08T22:58:49.828Z,20.75
2019-06-08T23:01:21.342Z,20.68
2019-06-08T23:03:53.664Z,20.63
2019-06-08T23:06:28.139Z,20.54
2019-06-08T23:09:01.456Z,20.11
2019-06-08T23:11:33.750Z,19.77
2019-06-08T23:14:10.351Z,19.59
2019-06-08T23:16:39.716Z,19.50
2019-06-08T23:19:12.870Z,19.82
2019-06-08T23:21:47.501Z,19.94
2019-06-08T23:24:19.205Z,20.18
2019-06-08T23:26:52.306Z,20.49
2019-06-08T23:29:23.649Z,20.60
2019-06-08T23:31:54.894Z,20.88
2019-06-08T23:34:27.661Z,20.98
2019-06-08T23:37:05.852Z,20.96
2019-06-08T23:39:37.398Z,21.17
2019-06-08T23:42:08.209Z,21.25
2019-06-08T23:44:41.881Z,21.38
2019-06-08T23:47:17.911Z,21.55
2019-06-08T23:49:50.881Z,21.46
2019-06-08T23:52:22.479Z,21.26
2019-06-08T23:54:53.956Z,21.12
2019-06-08T23:57:27.178Z,21.11
